sensor_id;sensor_type;location;lat;lon;timestamp;temperature;humidity
81869;DHT22;71320;52.252;13.382;2023-07-24T00:04:56;23.30;50.20
81869;DHT22;71320;52.252;13.382;2023-07-24T00:09:58;23.30;50.10
81869;DHT22;71320;52.252;13.382;2023-07-24T00:15:00;23.30;50.00
81869;DHT22;71320;52.252;13.382;2023-07-24T00:20:03;23.30;49.90
81869;DHT22;71320;52.252;13.382;2023-07-24T00:25:05;23.30;49.80
81869;DHT22;71320;52.252;13.382;2023-07-24T00:30:08;23.30;49.70
81869;DHT22;71320;52.252;13.382;2023-07-24T00:35:11;23.30;49.80
81869;DHT22;71320;52.252;13.382;2023-07-24T00:40:12;23.30;49.80
81869;DHT22;71320;52.252;13.382;2023-07-24T00:45:14;23.20;49.90
81869;DHT22;71320;52.252;13.382;2023-07-24T00:50:18;23.20;50.00
81869;DHT22;71320;52.252;13.382;2023-07-24T00:55:20;23.20;50.00
81869;DHT22;71320;52.252;13.382;2023-07-24T01:00:22;23.20;50.10
81869;DHT22;71320;52.252;13.382;2023-07-24T01:05:25;23.20;50.30
81869;DHT22;71320;52.252;13.382;2023-07-24T01:10:27;23.20;50.60
81869;DHT22;71320;52.252;13.382;2023-07-24T01:15:31;23.20;50.80
81869;DHT22;71320;52.252;13.382;2023-07-24T01:20:37;23.20;50.90
81869;DHT22;71320;52.252;13.382;2023-07-24T01:25:48;23.20;51.20
81869;DHT22;71320;52.252;13.382;2023-07-24T01:30:51;23.20;51.50
81869;DHT22;71320;52.252;13.382;2023-07-24T01:35:54;23.20;51.60
81869;DHT22;71320;52.252;13.382;2023-07-24T01:40:58;23.20;51.70
81869;DHT22;71320;52.252;13.382;2023-07-24T01:46:00;23.20;51.90
81869;DHT22;71320;52.252;13.382;2023-07-24T01:51:02;23.20;52.20
81869;DHT22;71320;52.252;13.382;2023-07-24T01:56:05;23.20;52.30
81869;DHT22;71320;52.252;13.382;2023-07-24T02:01:07;23.20;52.30
81869;DHT22;71320;52.252;13.382;2023-07-24T02:06:09;23.20;52.40
81869;DHT22;71320;52.252;13.382;2023-07-24T02:11:12;23.20;52.60
81869;DHT22;71320;52.252;13.382;2023-07-24T02:16:13;23.20;52.70
81869;DHT22;71320;52.252;13.382;2023-07-24T02:21:15;23.20;52.90
81869;DHT22;71320;52.252;13.382;2023-07-24T02:26:18;23.20;53.00
81869;DHT22;71320;52.252;13.382;2023-07-24T02:31:20;23.20;53.00
81869;DHT22;71320;52.252;13.382;2023-07-24T02:36:21;23.20;53.30
81869;DHT22;71320;52.252;13.382;2023-07-24T02:41:24;23.20;53.40
81869;DHT22;71320;52.252;13.382;2023-07-24T02:46:26;23.20;53.50
81869;DHT22;71320;52.252;13.382;2023-07-24T02:51:29;23.20;53.70
81869;DHT22;71320;52.252;13.382;2023-07-24T02:56:32;23.20;53.80
81869;DHT22;71320;52.252;13.382;2023-07-24T03:01:33;23.20;53.90
81869;DHT22;71320;52.252;13.382;2023-07-24T03:06:35;23.20;54.00
81869;DHT22;71320;52.252;13.382;2023-07-24T03:11:38;23.20;54.70
81869;DHT22;71320;52.252;13.382;2023-07-24T03:16:39;23.20;54.70
81869;DHT22;71320;52.252;13.382;2023-07-24T03:21:41;23.10;54.80
81869;DHT22;71320;52.252;13.382;2023-07-24T03:26:44;23.10;54.90
81869;DHT22;71320;52.252;13.382;2023-07-24T03:31:45;23.20;55.20
81869;DHT22;71320;52.252;13.382;2023-07-24T03:36:47;23.20;55.30
81869;DHT22;71320;52.252;13.382;2023-07-24T03:41:50;23.20;55.30
81869;DHT22;71320;52.252;13.382;2023-07-24T03:46:52;23.20;55.40
81869;DHT22;71320;52.252;13.382;2023-07-24T03:51:53;23.20;55.70
81869;DHT22;71320;52.252;13.382;2023-07-24T03:56:56;23.10;55.80
81869;DHT22;71320;52.252;13.382;2023-07-24T04:01:58;23.20;55.90
81869;DHT22;71320;52.252;13.382;2023-07-24T04:07:00;23.20;55.90
81869;DHT22;71320;52.252;13.382;2023-07-24T04:12:03;23.10;56.10
81869;DHT22;71320;52.252;13.382;2023-07-24T04:17:05;23.20;56.30
81869;DHT22;71320;52.252;13.382;2023-07-24T04:22:07;23.20;56.40
81869;DHT22;71320;52.252;13.382;2023-07-24T04:27:10;23.20;56.50
81869;DHT22;71320;52.252;13.382;2023-07-24T04:32:11;23.20;56.60
81869;DHT22;71320;52.252;13.382;2023-07-24T04:37:13;23.20;56.60
81869;DHT22;71320;52.252;13.382;2023-07-24T04:42:16;23.20;56.50
81869;DHT22;71320;52.252;13.382;2023-07-24T04:47:18;23.20;56.50
81869;DHT22;71320;52.252;13.382;2023-07-24T04:52:19;23.20;56.50
81869;DHT22;71320;52.252;13.382;2023-07-24T04:57:22;23.30;56.40
81869;DHT22;71320;52.252;13.382;2023-07-24T05:02:24;23.30;56.20
81869;DHT22;71320;52.252;13.382;2023-07-24T05:07:25;23.30;56.00
81869;DHT22;71320;52.252;13.382;2023-07-24T05:12:28;23.30;56.20
81869;DHT22;71320;52.252;13.382;2023-07-24T05:17:30;23.30;56.10
81869;DHT22;71320;52.252;13.382;2023-07-24T05:22:32;23.30;56.10
81869;DHT22;71320;52.252;13.382;2023-07-24T05:27:35;23.40;56.00
81869;DHT22;71320;52.252;13.382;2023-07-24T05:32:38;23.50;55.80
81869;DHT22;71320;52.252;13.382;2023-07-24T05:37:39;23.70;55.20
81869;DHT22;71320;52.252;13.382;2023-07-24T05:42:42;23.90;55.30
81869;DHT22;71320;52.252;13.382;2023-07-24T05:47:44;24.10;55.50
81869;DHT22;71320;52.252;13.382;2023-07-24T05:52:46;24.30;55.20
81869;DHT22;71320;52.252;13.382;2023-07-24T05:57:49;24.40;54.90
81869;DHT22;71320;52.252;13.382;2023-07-24T06:02:52;24.60;54.90
81869;DHT22;71320;52.252;13.382;2023-07-24T06:07:55;24.70;54.80
81869;DHT22;71320;52.252;13.382;2023-07-24T06:12:58;24.80;54.70
81869;DHT22;71320;52.252;13.382;2023-07-24T06:18:00;25.00;54.50
81869;DHT22;71320;52.252;13.382;2023-07-24T06:23:01;25.10;54.30
81869;DHT22;71320;52.252;13.382;2023-07-24T06:28:05;25.20;54.10
81869;DHT22;71320;52.252;13.382;2023-07-24T06:33:07;25.40;54.40
81869;DHT22;71320;52.252;13.382;2023-07-24T06:38:09;25.50;54.30
81869;DHT22;71320;52.252;13.382;2023-07-24T06:43:12;25.60;54.20
81869;DHT22;71320;52.252;13.382;2023-07-24T06:48:13;25.60;53.90
81869;DHT22;71320;52.252;13.382;2023-07-24T06:53:15;25.70;53.80
81869;DHT22;71320;52.252;13.382;2023-07-24T06:58:18;25.70;53.80
81869;DHT22;71320;52.252;13.382;2023-07-24T07:03:19;25.70;53.70
81869;DHT22;71320;52.252;13.382;2023-07-24T07:08:21;25.80;53.70
81869;DHT22;71320;52.252;13.382;2023-07-24T07:13:24;25.80;53.70
81869;DHT22;71320;52.252;13.382;2023-07-24T07:18:25;26.00;53.60
81869;DHT22;71320;52.252;13.382;2023-07-24T07:23:27;26.00;53.50
81869;DHT22;71320;52.252;13.382;2023-07-24T07:28:30;26.10;53.60
81869;DHT22;71320;52.252;13.382;2023-07-24T07:33:32;26.10;53.30
81869;DHT22;71320;52.252;13.382;2023-07-24T07:38:33;26.20;53.20
81869;DHT22;71320;52.252;13.382;2023-07-24T07:43:37;26.20;53.20
81869;DHT22;71320;52.252;13.382;2023-07-24T07:48:39;26.30;53.40
81869;DHT22;71320;52.252;13.382;2023-07-24T07:53:41;26.30;53.50
81869;DHT22;71320;52.252;13.382;2023-07-24T07:58:44;26.30;53.40
81869;DHT22;71320;52.252;13.382;2023-07-24T08:03:45;26.40;53.50
81869;DHT22;71320;52.252;13.382;2023-07-24T08:08:47;26.40;53.60
81869;DHT22;71320;52.252;13.382;2023-07-24T08:13:50;26.40;53.60
81869;DHT22;71320;52.252;13.382;2023-07-24T08:18:52;26.50;53.60
81869;DHT22;71320;52.252;13.382;2023-07-24T08:23:53;26.50;53.80
81869;DHT22;71320;52.252;13.382;2023-07-24T08:28:56;26.50;53.70
81869;DHT22;71320;52.252;13.382;2023-07-24T08:33:58;26.40;53.40
81869;DHT22;71320;52.252;13.382;2023-07-24T08:38:59;26.40;53.60
81869;DHT22;71320;52.252;13.382;2023-07-24T08:44:03;26.50;53.80
81869;DHT22;71320;52.252;13.382;2023-07-24T08:49:06;26.50;53.70
81869;DHT22;71320;52.252;13.382;2023-07-24T08:54:08;26.50;53.60
81869;DHT22;71320;52.252;13.382;2023-07-24T08:59:12;26.60;53.50
81869;DHT22;71320;52.252;13.382;2023-07-24T09:04:13;26.60;53.40
81869;DHT22;71320;52.252;13.382;2023-07-24T09:09:15;26.60;53.30
81869;DHT22;71320;52.252;13.382;2023-07-24T09:14:23;26.60;53.10
81869;DHT22;71320;52.252;13.382;2023-07-24T09:19:25;26.60;53.40
81869;DHT22;71320;52.252;13.382;2023-07-24T09:24:26;26.60;53.60
81869;DHT22;71320;52.252;13.382;2023-07-24T09:29:32;26.70;53.70
81869;DHT22;71320;52.252;13.382;2023-07-24T09:34:33;26.70;53.70
81869;DHT22;71320;52.252;13.382;2023-07-24T09:39:35;26.70;53.60
81869;DHT22;71320;52.252;13.382;2023-07-24T09:44:38;26.70;53.70
81869;DHT22;71320;52.252;13.382;2023-07-24T09:49:40;26.70;53.70
81869;DHT22;71320;52.252;13.382;2023-07-24T09:54:49;26.80;53.80
81869;DHT22;71320;52.252;13.382;2023-07-24T09:59:58;26.70;53.70
81869;DHT22;71320;52.252;13.382;2023-07-24T10:05:00;26.60;53.40
81869;DHT22;71320;52.252;13.382;2023-07-24T10:10:03;26.60;53.30
81869;DHT22;71320;52.252;13.382;2023-07-24T10:15:08;26.60;53.30
81869;DHT22;71320;52.252;13.382;2023-07-24T10:20:11;26.60;53.30
81869;DHT22;71320;52.252;13.382;2023-07-24T10:25:13;26.50;53.00
81869;DHT22;71320;52.252;13.382;2023-07-24T10:30:16;26.50;52.90
81869;DHT22;71320;52.252;13.382;2023-07-24T10:35:18;26.50;52.80
81869;DHT22;71320;52.252;13.382;2023-07-24T10:40:22;26.50;52.60
81869;DHT22;71320;52.252;13.382;2023-07-24T10:45:25;26.50;52.60
81869;DHT22;71320;52.252;13.382;2023-07-24T10:50:36;26.60;52.60
81869;DHT22;71320;52.252;13.382;2023-07-24T10:55:38;26.70;52.80
81869;DHT22;71320;52.252;13.382;2023-07-24T11:00:41;26.80;52.90
81869;DHT22;71320;52.252;13.382;2023-07-24T11:05:44;26.80;53.00
81869;DHT22;71320;52.252;13.382;2023-07-24T11:10:47;26.80;53.00
81869;DHT22;71320;52.252;13.382;2023-07-24T11:15:50;26.90;53.20
81869;DHT22;71320;52.252;13.382;2023-07-24T11:20:54;26.90;53.40
81869;DHT22;71320;52.252;13.382;2023-07-24T11:25:57;27.00;53.70
81869;DHT22;71320;52.252;13.382;2023-07-24T11:31:03;27.00;54.10
81869;DHT22;71320;52.252;13.382;2023-07-24T11:36:05;27.00;53.70
81869;DHT22;71320;52.252;13.382;2023-07-24T11:41:08;27.00;53.80
81869;DHT22;71320;52.252;13.382;2023-07-24T11:46:11;27.10;53.80
81869;DHT22;71320;52.252;13.382;2023-07-24T11:51:13;27.10;52.80
81869;DHT22;71320;52.252;13.382;2023-07-24T11:56:16;27.20;52.40
81869;DHT22;71320;52.252;13.382;2023-07-24T12:01:19;27.10;51.90
81869;DHT22;71320;52.252;13.382;2023-07-24T12:06:21;27.10;51.40
81869;DHT22;71320;52.252;13.382;2023-07-24T12:11:25;27.10;51.20
81869;DHT22;71320;52.252;13.382;2023-07-24T12:16:29;27.10;51.20
81869;DHT22;71320;52.252;13.382;2023-07-24T12:21:31;27.10;50.80
81869;DHT22;71320;52.252;13.382;2023-07-24T12:26:32;27.10;50.50
81869;DHT22;71320;52.252;13.382;2023-07-24T12:31:35;27.00;50.50
81869;DHT22;71320;52.252;13.382;2023-07-24T12:36:37;27.00;50.70
81869;DHT22;71320;52.252;13.382;2023-07-24T12:41:39;27.10;50.70
81869;DHT22;71320;52.252;13.382;2023-07-24T12:46:42;27.20;50.60
81869;DHT22;71320;52.252;13.382;2023-07-24T12:51:43;27.20;50.50
81869;DHT22;71320;52.252;13.382;2023-07-24T12:56:46;27.30;50.50
81869;DHT22;71320;52.252;13.382;2023-07-24T13:01:49;27.20;50.30
81869;DHT22;71320;52.252;13.382;2023-07-24T13:06:50;27.20;50.10
81869;DHT22;71320;52.252;13.382;2023-07-24T13:11:53;27.20;49.50
81869;DHT22;71320;52.252;13.382;2023-07-24T13:16:56;27.20;49.50
81869;DHT22;71320;52.252;13.382;2023-07-24T13:21:58;27.20;49.60
81869;DHT22;71320;52.252;13.382;2023-07-24T13:27:00;27.20;49.50
81869;DHT22;71320;52.252;13.382;2023-07-24T13:32:03;27.20;49.50
81869;DHT22;71320;52.252;13.382;2023-07-24T13:37:05;27.20;49.60
81869;DHT22;71320;52.252;13.382;2023-07-24T13:42:07;27.20;49.70
81869;DHT22;71320;52.252;13.382;2023-07-24T13:47:10;27.20;49.80
81869;DHT22;71320;52.252;13.382;2023-07-24T13:52:11;27.20;49.90
81869;DHT22;71320;52.252;13.382;2023-07-24T13:57:13;27.20;49.70
81869;DHT22;71320;52.252;13.382;2023-07-24T14:02:16;27.20;50.50
81869;DHT22;71320;52.252;13.382;2023-07-24T14:07:19;27.10;50.40
81869;DHT22;71320;52.252;13.382;2023-07-24T14:12:20;27.00;51.50
81869;DHT22;71320;52.252;13.382;2023-07-24T14:17:23;26.70;52.50
81869;DHT22;71320;52.252;13.382;2023-07-24T14:22:25;26.60;53.50
81869;DHT22;71320;52.252;13.382;2023-07-24T14:27:26;26.60;54.70
81869;DHT22;71320;52.252;13.382;2023-07-24T14:32:29;26.60;55.20
81869;DHT22;71320;52.252;13.382;2023-07-24T14:37:31;26.60;55.60
81869;DHT22;71320;52.252;13.382;2023-07-24T14:42:32;26.60;55.30
81869;DHT22;71320;52.252;13.382;2023-07-24T14:47:35;26.60;55.40
81869;DHT22;71320;52.252;13.382;2023-07-24T14:52:37;26.60;56.00
81869;DHT22;71320;52.252;13.382;2023-07-24T14:57:39;26.60;54.90
81869;DHT22;71320;52.252;13.382;2023-07-24T15:02:42;26.60;55.30
81869;DHT22;71320;52.252;13.382;2023-07-24T15:07:44;26.60;55.40
81869;DHT22;71320;52.252;13.382;2023-07-24T15:12:45;26.60;55.10
81869;DHT22;71320;52.252;13.382;2023-07-24T15:17:48;26.60;55.40
81869;DHT22;71320;52.252;13.382;2023-07-24T15:22:50;26.60;55.30
81869;DHT22;71320;52.252;13.382;2023-07-24T15:27:53;26.60;55.20
81869;DHT22;71320;52.252;13.382;2023-07-24T15:32:56;26.70;54.70
81869;DHT22;71320;52.252;13.382;2023-07-24T15:37:58;26.80;54.10
81869;DHT22;71320;52.252;13.382;2023-07-24T15:43:01;26.80;54.20
81869;DHT22;71320;52.252;13.382;2023-07-24T15:48:05;26.70;53.80
81869;DHT22;71320;52.252;13.382;2023-07-24T15:53:06;26.70;53.50
81869;DHT22;71320;52.252;13.382;2023-07-24T15:58:08;26.70;53.30
81869;DHT22;71320;52.252;13.382;2023-07-24T16:03:11;26.60;53.30
81869;DHT22;71320;52.252;13.382;2023-07-24T16:08:13;26.70;53.30
81869;DHT22;71320;52.252;13.382;2023-07-24T16:13:15;26.60;52.90
81869;DHT22;71320;52.252;13.382;2023-07-24T16:18:21;26.60;52.50
81869;DHT22;71320;52.252;13.382;2023-07-24T16:23:23;26.60;52.60
81869;DHT22;71320;52.252;13.382;2023-07-24T16:28:25;26.50;52.60
81869;DHT22;71320;52.252;13.382;2023-07-24T16:33:27;26.50;52.40
81869;DHT22;71320;52.252;13.382;2023-07-24T16:38:29;26.50;52.40
81869;DHT22;71320;52.252;13.382;2023-07-24T16:43:31;26.50;52.40
81869;DHT22;71320;52.252;13.382;2023-07-24T16:48:34;26.50;52.40
81869;DHT22;71320;52.252;13.382;2023-07-24T16:53:35;26.40;52.40
81869;DHT22;71320;52.252;13.382;2023-07-24T16:58:37;26.40;52.60
81869;DHT22;71320;52.252;13.382;2023-07-24T17:03:40;26.40;52.90
81869;DHT22;71320;52.252;13.382;2023-07-24T17:08:42;26.30;53.30
81869;DHT22;71320;52.252;13.382;2023-07-24T17:13:43;26.30;54.00
81869;DHT22;71320;52.252;13.382;2023-07-24T17:18:48;26.20;54.20
81869;DHT22;71320;52.252;13.382;2023-07-24T17:23:54;26.20;54.10
81869;DHT22;71320;52.252;13.382;2023-07-24T17:28:56;26.20;53.90
81869;DHT22;71320;52.252;13.382;2023-07-24T17:34:03;26.20;53.80
81869;DHT22;71320;52.252;13.382;2023-07-24T17:39:04;26.20;53.90
81869;DHT22;71320;52.252;13.382;2023-07-24T17:44:06;26.10;53.70
81869;DHT22;71320;52.252;13.382;2023-07-24T17:49:09;26.00;54.40
81869;DHT22;71320;52.252;13.382;2023-07-24T17:54:10;25.80;54.90
81869;DHT22;71320;52.252;13.382;2023-07-24T17:59:12;25.70;55.20
81869;DHT22;71320;52.252;13.382;2023-07-24T18:04:15;25.70;55.30
81869;DHT22;71320;52.252;13.382;2023-07-24T18:09:17;25.60;55.60
81869;DHT22;71320;52.252;13.382;2023-07-24T18:14:19;25.60;56.10
81869;DHT22;71320;52.252;13.382;2023-07-24T18:19:23;25.50;56.30
81869;DHT22;71320;52.252;13.382;2023-07-24T18:24:25;25.50;56.50
81869;DHT22;71320;52.252;13.382;2023-07-24T18:29:26;25.40;56.50
81869;DHT22;71320;52.252;13.382;2023-07-24T18:34:29;25.40;56.50
81869;DHT22;71320;52.252;13.382;2023-07-24T18:39:31;25.40;56.70
81869;DHT22;71320;52.252;13.382;2023-07-24T18:44:32;25.30;56.70
81869;DHT22;71320;52.252;13.382;2023-07-24T18:49:35;25.30;57.00
81869;DHT22;71320;52.252;13.382;2023-07-24T18:54:37;25.20;57.40
81869;DHT22;71320;52.252;13.382;2023-07-24T18:59:40;25.20;57.40
81869;DHT22;71320;52.252;13.382;2023-07-24T19:04:43;25.10;57.30
81869;DHT22;71320;52.252;13.382;2023-07-24T19:09:44;25.10;57.70
81869;DHT22;71320;52.252;13.382;2023-07-24T19:14:46;25.10;57.50
81869;DHT22;71320;52.252;13.382;2023-07-24T19:19:49;25.30;56.90
81869;DHT22;71320;52.252;13.382;2023-07-24T19:24:50;25.40;56.50
81869;DHT22;71320;52.252;13.382;2023-07-24T19:29:54;25.40;56.30
81869;DHT22;71320;52.252;13.382;2023-07-24T19:34:58;25.40;56.10
81869;DHT22;71320;52.252;13.382;2023-07-24T19:40:02;25.40;55.90
81869;DHT22;71320;52.252;13.382;2023-07-24T19:45:06;25.40;55.80
81869;DHT22;71320;52.252;13.382;2023-07-24T19:50:09;25.40;55.70
81869;DHT22;71320;52.252;13.382;2023-07-24T19:55:11;25.50;55.70
81869;DHT22;71320;52.252;13.382;2023-07-24T20:00:13;25.40;55.60
81869;DHT22;71320;52.252;13.382;2023-07-24T20:05:16;25.40;55.60
81869;DHT22;71320;52.252;13.382;2023-07-24T20:10:17;25.40;55.50
81869;DHT22;71320;52.252;13.382;2023-07-24T20:15:19;25.40;55.50
81869;DHT22;71320;52.252;13.382;2023-07-24T20:20:22;25.40;55.40
81869;DHT22;71320;52.252;13.382;2023-07-24T20:25:24;25.40;56.00
81869;DHT22;71320;52.252;13.382;2023-07-24T20:30:25;25.40;55.30
81869;DHT22;71320;52.252;13.382;2023-07-24T20:35:28;25.40;55.30
81869;DHT22;71320;52.252;13.382;2023-07-24T20:40:31;25.40;55.30
81869;DHT22;71320;52.252;13.382;2023-07-24T20:45:33;25.40;55.30
81869;DHT22;71320;52.252;13.382;2023-07-24T20:50:36;25.40;55.30
81869;DHT22;71320;52.252;13.382;2023-07-24T20:55:38;25.40;55.30
81869;DHT22;71320;52.252;13.382;2023-07-24T21:00:39;25.40;55.20
81869;DHT22;71320;52.252;13.382;2023-07-24T21:05:42;25.40;55.30
81869;DHT22;71320;52.252;13.382;2023-07-24T21:10:44;25.40;55.00
81869;DHT22;71320;52.252;13.382;2023-07-24T21:15:45;25.30;55.00
81869;DHT22;71320;52.252;13.382;2023-07-24T21:20:51;25.30;54.90
81869;DHT22;71320;52.252;13.382;2023-07-24T21:25:54;25.30;54.90
81869;DHT22;71320;52.252;13.382;2023-07-24T21:30:56;25.30;54.90
81869;DHT22;71320;52.252;13.382;2023-07-24T21:36:00;25.30;54.80
81869;DHT22;71320;52.252;13.382;2023-07-24T21:41:02;25.30;54.80
81869;DHT22;71320;52.252;13.382;2023-07-24T21:46:03;25.30;54.80
81869;DHT22;71320;52.252;13.382;2023-07-24T21:51:06;25.30;54.80
81869;DHT22;71320;52.252;13.382;2023-07-24T21:56:08;25.30;54.80
81869;DHT22;71320;52.252;13.382;2023-07-24T22:01:10;25.20;54.80
81869;DHT22;71320;52.252;13.382;2023-07-24T22:06:12;25.20;54.70
81869;DHT22;71320;52.252;13.382;2023-07-24T22:11:15;25.20;54.70
81869;DHT22;71320;52.252;13.382;2023-07-24T22:16:18;25.20;54.60
81869;DHT22;71320;52.252;13.382;2023-07-24T22:21:20;25.20;54.60
81869;DHT22;71320;52.252;13.382;2023-07-24T22:26:22;25.20;54.50
81869;DHT22;71320;52.252;13.382;2023-07-24T22:31:24;25.20;54.40
81869;DHT22;71320;52.252;13.382;2023-07-24T22:36:28;25.10;54.40
81869;DHT22;71320;52.252;13.382;2023-07-24T22:41:30;25.10;54.30
81869;DHT22;71320;52.252;13.382;2023-07-24T22:46:32;25.10;54.20
81869;DHT22;71320;52.252;13.382;2023-07-24T22:51:35;25.20;54.30
81869;DHT22;71320;52.252;13.382;2023-07-24T22:56:36;25.10;54.20
81869;DHT22;71320;52.252;13.382;2023-07-24T23:01:40;25.10;54.20
81869;DHT22;71320;52.252;13.382;2023-07-24T23:06:43;25.10;54.10
81869;DHT22;71320;52.252;13.382;2023-07-24T23:11:44;25.10;54.00
81869;DHT22;71320;52.252;13.382;2023-07-24T23:16:46;25.10;53.90
81869;DHT22;71320;52.252;13.382;2023-07-24T23:21:49;25.10;53.90
81869;DHT22;71320;52.252;13.382;2023-07-24T23:26:51;25.10;53.90
81869;DHT22;71320;52.252;13.382;2023-07-24T23:31:53;25.10;53.90
81869;DHT22;71320;52.252;13.382;2023-07-24T23:36:56;25.00;53.90
81869;DHT22;71320;52.252;13.382;2023-07-24T23:41:58;25.00;53.80
81869;DHT22;71320;52.252;13.382;2023-07-24T23:47:00;25.00;53.80
81869;DHT22;71320;52.252;13.382;2023-07-24T23:52:03;25.00;53.80
81869;DHT22;71320;52.252;13.382;2023-07-24T23:57:05;25.00;53.70
